sensor_id;sensor_type;location;lat;lon;timestamp;temperature;humidity
30150;DHT22;16962;48.646;9.026;2023-04-06T00:02:13;-0.40;99.90
30150;DHT22;16962;48.646;9.026;2023-04-06T00:05:00;-0.40;99.90
30150;DHT22;16962;48.646;9.026;2023-04-06T00:07:48;-0.40;99.90
30150;DHT22;16962;48.646;9.026;2023-04-06T00:10:37;-0.40;99.90
30150;DHT22;16962;48.646;9.026;2023-04-06T00:13:25;-0.40;99.90
30150;DHT22;16962;48.646;9.026;2023-04-06T00:16:13;-0.60;99.90
30150;DHT22;16962;48.646;9.026;2023-04-06T00:19:00;-0.70;99.90
30150;DHT22;16962;48.646;9.026;2023-04-06T00:21:48;-0.70;99.90
30150;DHT22;16962;48.646;9.026;2023-04-06T00:24:35;-0.80;99.90
30150;DHT22;16962;48.646;9.026;2023-04-06T00:27:24;-0.90;99.90
30150;DHT22;16962;48.646;9.026;2023-04-06T00:30:11;-1.10;99.90
30150;DHT22;16962;48.646;9.026;2023-04-06T00:32:59;-1.10;99.90
30150;DHT22;16962;48.646;9.026;2023-04-06T00:35:49;-1.20;99.90
30150;DHT22;16962;48.646;9.026;2023-04-06T00:38:43;-1.30;99.90
30150;DHT22;16962;48.646;9.026;2023-04-06T00:41:32;-1.20;99.90
30150;DHT22;16962;48.646;9.026;2023-04-06T00:44:20;-1.30;99.90
30150;DHT22;16962;48.646;9.026;2023-04-06T00:47:09;-1.20;99.90
30150;DHT22;16962;48.646;9.026;2023-04-06T00:49:57;-1.10;99.90
30150;DHT22;16962;48.646;9.026;2023-04-06T00:52:44;-1.00;99.90
30150;DHT22;16962;48.646;9.026;2023-04-06T00:55:31;-0.80;99.90
30150;DHT22;16962;48.646;9.026;2023-04-06T00:58:19;-0.70;99.90
30150;DHT22;16962;48.646;9.026;2023-04-06T01:01:06;-0.70;99.90
30150;DHT22;16962;48.646;9.026;2023-04-06T01:03:54;-0.70;99.90
30150;DHT22;16962;48.646;9.026;2023-04-06T01:06:42;-0.70;99.90
30150;DHT22;16962;48.646;9.026;2023-04-06T01:09:30;-0.80;99.90
30150;DHT22;16962;48.646;9.026;2023-04-06T01:12:18;-0.90;99.90
30150;DHT22;16962;48.646;9.026;2023-04-06T01:15:06;-1.00;99.90
30150;DHT22;16962;48.646;9.026;2023-04-06T01:17:54;-1.00;99.90
30150;DHT22;16962;48.646;9.026;2023-04-06T01:20:41;-1.00;99.90
30150;DHT22;16962;48.646;9.026;2023-04-06T01:23:31;-1.00;99.90
30150;DHT22;16962;48.646;9.026;2023-04-06T01:26:18;-1.10;99.90
30150;DHT22;16962;48.646;9.026;2023-04-06T01:29:05;-1.10;99.90
30150;DHT22;16962;48.646;9.026;2023-04-06T01:31:53;-1.20;99.90
30150;DHT22;16962;48.646;9.026;2023-04-06T01:34:40;-1.20;99.90
30150;DHT22;16962;48.646;9.026;2023-04-06T01:37:28;-1.20;99.90
30150;DHT22;16962;48.646;9.026;2023-04-06T01:40:19;-1.20;99.90
30150;DHT22;16962;48.646;9.026;2023-04-06T01:43:07;-1.20;99.90
30150;DHT22;16962;48.646;9.026;2023-04-06T01:45:55;-1.10;99.90
30150;DHT22;16962;48.646;9.026;2023-04-06T01:48:45;-1.10;99.90
30150;DHT22;16962;48.646;9.026;2023-04-06T01:51:32;-1.10;99.90
30150;DHT22;16962;48.646;9.026;2023-04-06T01:54:20;-1.10;99.90
30150;DHT22;16962;48.646;9.026;2023-04-06T01:57:13;-1.10;99.90
30150;DHT22;16962;48.646;9.026;2023-04-06T02:00:01;-1.10;99.90
30150;DHT22;16962;48.646;9.026;2023-04-06T02:02:48;-1.10;99.90
30150;DHT22;16962;48.646;9.026;2023-04-06T02:05:36;-1.10;99.90
30150;DHT22;16962;48.646;9.026;2023-04-06T02:08:25;-1.10;99.90
30150;DHT22;16962;48.646;9.026;2023-04-06T02:11:17;-1.30;99.90
30150;DHT22;16962;48.646;9.026;2023-04-06T02:14:04;-1.30;99.90
30150;DHT22;16962;48.646;9.026;2023-04-06T02:16:53;-1.40;99.90
30150;DHT22;16962;48.646;9.026;2023-04-06T02:19:50;-1.40;99.90
30150;DHT22;16962;48.646;9.026;2023-04-06T02:22:48;-1.50;99.90
30150;DHT22;16962;48.646;9.026;2023-04-06T02:25:35;-1.50;99.90
30150;DHT22;16962;48.646;9.026;2023-04-06T02:28:22;-1.70;99.90
30150;DHT22;16962;48.646;9.026;2023-04-06T02:31:11;-1.90;99.90
30150;DHT22;16962;48.646;9.026;2023-04-06T02:34:00;-1.90;99.90
30150;DHT22;16962;48.646;9.026;2023-04-06T02:36:48;-1.90;99.90
30150;DHT22;16962;48.646;9.026;2023-04-06T02:39:37;-1.90;99.90
30150;DHT22;16962;48.646;9.026;2023-04-06T02:42:26;-1.90;99.90
30150;DHT22;16962;48.646;9.026;2023-04-06T02:45:16;-1.80;99.90
30150;DHT22;16962;48.646;9.026;2023-04-06T02:48:04;-1.60;99.90
30150;DHT22;16962;48.646;9.026;2023-04-06T02:50:58;-1.60;99.90
30150;DHT22;16962;48.646;9.026;2023-04-06T02:53:46;-1.50;99.90
30150;DHT22;16962;48.646;9.026;2023-04-06T02:56:33;-1.40;99.90
30150;DHT22;16962;48.646;9.026;2023-04-06T02:59:20;-1.30;99.90
30150;DHT22;16962;48.646;9.026;2023-04-06T03:02:10;-1.30;99.90
30150;DHT22;16962;48.646;9.026;2023-04-06T03:05:00;-1.20;99.90
30150;DHT22;16962;48.646;9.026;2023-04-06T03:07:47;-1.20;99.90
30150;DHT22;16962;48.646;9.026;2023-04-06T03:10:36;-1.20;99.90
30150;DHT22;16962;48.646;9.026;2023-04-06T03:13:24;-1.30;99.90
30150;DHT22;16962;48.646;9.026;2023-04-06T03:16:11;-1.40;99.90
30150;DHT22;16962;48.646;9.026;2023-04-06T03:18:58;-1.50;99.90
30150;DHT22;16962;48.646;9.026;2023-04-06T03:21:46;-1.70;99.90
30150;DHT22;16962;48.646;9.026;2023-04-06T03:24:34;-1.80;99.90
30150;DHT22;16962;48.646;9.026;2023-04-06T03:27:21;-1.90;99.90
30150;DHT22;16962;48.646;9.026;2023-04-06T03:30:09;-2.00;99.90
30150;DHT22;16962;48.646;9.026;2023-04-06T03:32:57;-2.10;99.90
30150;DHT22;16962;48.646;9.026;2023-04-06T03:35:44;-2.20;99.90
30150;DHT22;16962;48.646;9.026;2023-04-06T03:38:49;-2.20;99.90
30150;DHT22;16962;48.646;9.026;2023-04-06T03:41:36;-2.20;99.90
30150;DHT22;16962;48.646;9.026;2023-04-06T03:44:25;-2.20;99.90
30150;DHT22;16962;48.646;9.026;2023-04-06T03:47:15;-2.20;99.90
30150;DHT22;16962;48.646;9.026;2023-04-06T03:50:02;-2.20;99.90
30150;DHT22;16962;48.646;9.026;2023-04-06T03:52:52;-2.30;99.90
30150;DHT22;16962;48.646;9.026;2023-04-06T03:55:42;-2.40;99.90
30150;DHT22;16962;48.646;9.026;2023-04-06T03:58:29;-2.40;99.90
30150;DHT22;16962;48.646;9.026;2023-04-06T04:01:20;-2.50;99.90
30150;DHT22;16962;48.646;9.026;2023-04-06T04:04:07;-2.60;99.90
30150;DHT22;16962;48.646;9.026;2023-04-06T04:06:58;-2.60;99.90
30150;DHT22;16962;48.646;9.026;2023-04-06T04:09:47;-2.60;99.90
30150;DHT22;16962;48.646;9.026;2023-04-06T04:12:38;-2.70;1.00
30150;DHT22;16962;48.646;9.026;2023-04-06T04:15:30;-2.70;1.00
30150;DHT22;16962;48.646;9.026;2023-04-06T04:18:20;-2.70;1.00
30150;DHT22;16962;48.646;9.026;2023-04-06T04:21:11;-2.70;1.00
30150;DHT22;16962;48.646;9.026;2023-04-06T04:24:13;-2.60;1.00
30150;DHT22;16962;48.646;9.026;2023-04-06T04:27:02;-2.50;1.00
30150;DHT22;16962;48.646;9.026;2023-04-06T04:30:35;-2.50;1.00
30150;DHT22;16962;48.646;9.026;2023-04-06T04:37:44;-2.40;1.00
30150;DHT22;16962;48.646;9.026;2023-04-06T04:40:48;-2.50;1.00
30150;DHT22;16962;48.646;9.026;2023-04-06T04:44:00;-2.60;1.00
30150;DHT22;16962;48.646;9.026;2023-04-06T04:48:02;-2.60;1.00
30150;DHT22;16962;48.646;9.026;2023-04-06T04:56:11;-2.40;1.00
30150;DHT22;16962;48.646;9.026;2023-04-06T05:03:43;-2.40;1.00
30150;DHT22;16962;48.646;9.026;2023-04-06T05:41:18;-1.50;1.00
30150;DHT22;16962;48.646;9.026;2023-04-06T05:44:04;-1.40;1.00
30150;DHT22;16962;48.646;9.026;2023-04-06T05:51:20;-1.30;1.00
30150;DHT22;16962;48.646;9.026;2023-04-06T05:54:41;-1.20;1.00
30150;DHT22;16962;48.646;9.026;2023-04-06T05:57:28;-1.10;1.00
30150;DHT22;16962;48.646;9.026;2023-04-06T06:00:16;-1.10;1.00
30150;DHT22;16962;48.646;9.026;2023-04-06T06:03:03;-1.10;1.00
30150;DHT22;16962;48.646;9.026;2023-04-06T06:06:10;-1.00;99.90
30150;DHT22;16962;48.646;9.026;2023-04-06T07:10:16;3.60;99.90
30150;DHT22;16962;48.646;9.026;2023-04-06T07:13:06;3.80;96.10
30150;DHT22;16962;48.646;9.026;2023-04-06T07:16:06;4.10;82.90
30150;DHT22;16962;48.646;9.026;2023-04-06T07:18:55;4.50;72.40
30150;DHT22;16962;48.646;9.026;2023-04-06T07:21:46;4.70;47.70
30150;DHT22;16962;48.646;9.026;2023-04-06T07:24:40;4.80;30.20
30150;DHT22;16962;48.646;9.026;2023-04-06T07:27:28;4.90;22.40
30150;DHT22;16962;48.646;9.026;2023-04-06T07:30:17;5.00;15.70
30150;DHT22;16962;48.646;9.026;2023-04-06T07:33:08;5.00;11.30
30150;DHT22;16962;48.646;9.026;2023-04-06T07:35:57;5.40;8.50
30150;DHT22;16962;48.646;9.026;2023-04-06T07:38:48;5.70;3.80
30150;DHT22;16962;48.646;9.026;2023-04-06T07:41:39;5.90;1.00
30150;DHT22;16962;48.646;9.026;2023-04-06T07:44:26;6.20;1.00
30150;DHT22;16962;48.646;9.026;2023-04-06T07:47:18;6.40;1.00
30150;DHT22;16962;48.646;9.026;2023-04-06T07:50:26;6.60;1.00
30150;DHT22;16962;48.646;9.026;2023-04-06T07:53:31;6.70;1.00
30150;DHT22;16962;48.646;9.026;2023-04-06T07:56:20;6.70;1.00
30150;DHT22;16962;48.646;9.026;2023-04-06T07:59:21;7.20;1.00
30150;DHT22;16962;48.646;9.026;2023-04-06T08:02:12;7.40;1.00
30150;DHT22;16962;48.646;9.026;2023-04-06T08:04:59;7.70;1.00
30150;DHT22;16962;48.646;9.026;2023-04-06T08:07:46;8.00;1.00
30150;DHT22;16962;48.646;9.026;2023-04-06T08:10:38;8.30;1.00
30150;DHT22;16962;48.646;9.026;2023-04-06T08:13:29;8.60;1.00
30150;DHT22;16962;48.646;9.026;2023-04-06T08:16:16;9.20;1.00
30150;DHT22;16962;48.646;9.026;2023-04-06T08:19:24;9.40;1.00
30150;DHT22;16962;48.646;9.026;2023-04-06T08:22:22;9.60;1.00
30150;DHT22;16962;48.646;9.026;2023-04-06T08:25:38;10.30;1.00
30150;DHT22;16962;48.646;9.026;2023-04-06T08:28:53;10.70;1.00
30150;DHT22;16962;48.646;9.026;2023-04-06T08:32:30;11.60;1.00
30150;DHT22;16962;48.646;9.026;2023-04-06T08:36:06;11.60;1.00
30150;DHT22;16962;48.646;9.026;2023-04-06T08:38:54;12.00;1.00
30150;DHT22;16962;48.646;9.026;2023-04-06T08:41:45;12.20;1.00
30150;DHT22;16962;48.646;9.026;2023-04-06T08:44:38;13.30;1.00
30150;DHT22;16962;48.646;9.026;2023-04-06T08:47:29;14.10;1.00
30150;DHT22;16962;48.646;9.026;2023-04-06T08:50:17;13.60;1.00
30150;DHT22;16962;48.646;9.026;2023-04-06T08:53:14;13.00;1.00
30150;DHT22;16962;48.646;9.026;2023-04-06T08:56:04;13.20;1.00
30150;DHT22;16962;48.646;9.026;2023-04-06T08:59:00;13.60;1.00
30150;DHT22;16962;48.646;9.026;2023-04-06T09:05:20;14.30;1.00
30150;DHT22;16962;48.646;9.026;2023-04-06T09:08:17;14.60;1.00
30150;DHT22;16962;48.646;9.026;2023-04-06T09:11:19;14.50;1.00
30150;DHT22;16962;48.646;9.026;2023-04-06T09:14:07;14.90;1.00
30150;DHT22;16962;48.646;9.026;2023-04-06T09:16:55;15.20;1.00
30150;DHT22;16962;48.646;9.026;2023-04-06T09:19:47;16.00;1.00
30150;DHT22;16962;48.646;9.026;2023-04-06T09:22:37;16.10;1.00
30150;DHT22;16962;48.646;9.026;2023-04-06T09:25:28;14.90;1.00
30150;DHT22;16962;48.646;9.026;2023-04-06T09:28:25;14.00;1.00
30150;DHT22;16962;48.646;9.026;2023-04-06T09:35:55;15.90;1.00
30150;DHT22;16962;48.646;9.026;2023-04-06T09:39:15;16.60;1.00
30150;DHT22;16962;48.646;9.026;2023-04-06T09:42:26;17.10;1.00
30150;DHT22;16962;48.646;9.026;2023-04-06T09:45:21;16.00;1.00
30150;DHT22;16962;48.646;9.026;2023-04-06T09:48:41;14.60;1.00
30150;DHT22;16962;48.646;9.026;2023-04-06T09:55:08;16.40;1.00
30150;DHT22;16962;48.646;9.026;2023-04-06T09:58:10;15.60;1.00
30150;DHT22;16962;48.646;9.026;2023-04-06T10:07:02;17.40;1.00
30150;DHT22;16962;48.646;9.026;2023-04-06T10:09:53;17.80;1.00
30150;DHT22;16962;48.646;9.026;2023-04-06T10:12:44;18.00;1.00
30150;DHT22;16962;48.646;9.026;2023-04-06T10:15:48;17.60;1.00
30150;DHT22;16962;48.646;9.026;2023-04-06T10:18:38;17.00;1.00
30150;DHT22;16962;48.646;9.026;2023-04-06T10:21:27;17.40;1.00
30150;DHT22;16962;48.646;9.026;2023-04-06T10:24:20;17.50;1.00
30150;DHT22;16962;48.646;9.026;2023-04-06T10:27:08;17.30;1.00
30150;DHT22;16962;48.646;9.026;2023-04-06T10:34:39;19.00;1.00
30150;DHT22;16962;48.646;9.026;2023-04-06T10:38:00;17.60;1.00
30150;DHT22;16962;48.646;9.026;2023-04-06T10:40:51;18.30;1.00
30150;DHT22;16962;48.646;9.026;2023-04-06T10:43:41;19.10;1.00
30150;DHT22;16962;48.646;9.026;2023-04-06T10:46:32;19.90;1.00
30150;DHT22;16962;48.646;9.026;2023-04-06T10:49:29;18.80;1.00
30150;DHT22;16962;48.646;9.026;2023-04-06T10:52:22;19.50;1.00
30150;DHT22;16962;48.646;9.026;2023-04-06T10:55:15;19.90;1.00
30150;DHT22;16962;48.646;9.026;2023-04-06T10:58:07;20.20;1.00
30150;DHT22;16962;48.646;9.026;2023-04-06T11:00:56;19.40;1.00
30150;DHT22;16962;48.646;9.026;2023-04-06T11:03:51;19.30;1.00
30150;DHT22;16962;48.646;9.026;2023-04-06T11:07:01;19.80;1.00
30150;DHT22;16962;48.646;9.026;2023-04-06T11:09:50;19.30;1.00
30150;DHT22;16962;48.646;9.026;2023-04-06T11:13:00;18.60;1.00
30150;DHT22;16962;48.646;9.026;2023-04-06T11:15:47;19.30;1.00
30150;DHT22;16962;48.646;9.026;2023-04-06T11:18:37;19.60;1.00
30150;DHT22;16962;48.646;9.026;2023-04-06T11:21:49;19.80;1.00
30150;DHT22;16962;48.646;9.026;2023-04-06T11:24:36;20.70;1.00
30150;DHT22;16962;48.646;9.026;2023-04-06T11:27:34;20.30;1.00
30150;DHT22;16962;48.646;9.026;2023-04-06T11:30:23;19.90;1.00
30150;DHT22;16962;48.646;9.026;2023-04-06T11:33:22;19.40;1.00
30150;DHT22;16962;48.646;9.026;2023-04-06T11:36:29;20.00;1.00
30150;DHT22;16962;48.646;9.026;2023-04-06T11:39:22;19.50;1.00
30150;DHT22;16962;48.646;9.026;2023-04-06T11:42:29;20.80;1.00
30150;DHT22;16962;48.646;9.026;2023-04-06T11:45:25;21.30;1.00
30150;DHT22;16962;48.646;9.026;2023-04-06T11:48:26;21.80;1.00
30150;DHT22;16962;48.646;9.026;2023-04-06T11:51:23;21.90;1.00
30150;DHT22;16962;48.646;9.026;2023-04-06T11:54:47;22.00;1.00
30150;DHT22;16962;48.646;9.026;2023-04-06T11:57:38;22.10;1.00
30150;DHT22;16962;48.646;9.026;2023-04-06T12:00:27;21.40;1.00
30150;DHT22;16962;48.646;9.026;2023-04-06T12:03:38;21.10;1.00
30150;DHT22;16962;48.646;9.026;2023-04-06T12:10:31;20.60;1.00
30150;DHT22;16962;48.646;9.026;2023-04-06T12:14:20;21.80;1.00
30150;DHT22;16962;48.646;9.026;2023-04-06T12:17:50;21.00;1.00
30150;DHT22;16962;48.646;9.026;2023-04-06T12:21:16;19.10;1.00
30150;DHT22;16962;48.646;9.026;2023-04-06T12:24:12;17.70;1.00
30150;DHT22;16962;48.646;9.026;2023-04-06T12:27:19;18.20;1.00
30150;DHT22;16962;48.646;9.026;2023-04-06T12:30:12;18.00;1.00
30150;DHT22;16962;48.646;9.026;2023-04-06T12:33:01;16.90;1.00
30150;DHT22;16962;48.646;9.026;2023-04-06T12:36:15;16.10;1.00
30150;DHT22;16962;48.646;9.026;2023-04-06T12:39:50;17.60;1.00
30150;DHT22;16962;48.646;9.026;2023-04-06T12:43:10;19.30;1.00
30150;DHT22;16962;48.646;9.026;2023-04-06T12:47:03;20.00;1.00
30150;DHT22;16962;48.646;9.026;2023-04-06T12:53:35;22.70;1.00
30150;DHT22;16962;48.646;9.026;2023-04-06T13:00:12;22.30;1.00
30150;DHT22;16962;48.646;9.026;2023-04-06T13:03:12;22.30;1.00
30150;DHT22;16962;48.646;9.026;2023-04-06T13:06:17;23.30;1.00
30150;DHT22;16962;48.646;9.026;2023-04-06T13:09:39;22.70;1.00
30150;DHT22;16962;48.646;9.026;2023-04-06T13:12:30;22.00;1.00
30150;DHT22;16962;48.646;9.026;2023-04-06T13:15:18;20.70;1.00
30150;DHT22;16962;48.646;9.026;2023-04-06T13:18:06;20.00;1.00
30150;DHT22;16962;48.646;9.026;2023-04-06T13:20:56;19.40;1.00
30150;DHT22;16962;48.646;9.026;2023-04-06T13:23:46;17.80;1.00
30150;DHT22;16962;48.646;9.026;2023-04-06T13:26:36;16.90;1.00
30150;DHT22;16962;48.646;9.026;2023-04-06T13:29:23;16.50;1.00
30150;DHT22;16962;48.646;9.026;2023-04-06T13:32:33;15.80;1.00
30150;DHT22;16962;48.646;9.026;2023-04-06T13:35:48;15.90;1.00
30150;DHT22;16962;48.646;9.026;2023-04-06T13:38:39;16.10;1.00
30150;DHT22;16962;48.646;9.026;2023-04-06T13:42:14;17.10;1.00
30150;DHT22;16962;48.646;9.026;2023-04-06T13:45:54;17.20;1.00
30150;DHT22;16962;48.646;9.026;2023-04-06T13:48:47;16.50;1.00
30150;DHT22;16962;48.646;9.026;2023-04-06T13:51:41;17.20;1.00
30150;DHT22;16962;48.646;9.026;2023-04-06T13:54:39;17.40;1.00
30150;DHT22;16962;48.646;9.026;2023-04-06T13:57:41;17.20;1.00
30150;DHT22;16962;48.646;9.026;2023-04-06T14:01:06;17.50;1.00
30150;DHT22;16962;48.646;9.026;2023-04-06T14:03:55;18.70;1.00
30150;DHT22;16962;48.646;9.026;2023-04-06T14:06:45;18.30;1.00
30150;DHT22;16962;48.646;9.026;2023-04-06T14:09:33;19.20;1.00
30150;DHT22;16962;48.646;9.026;2023-04-06T14:12:50;19.70;1.00
30150;DHT22;16962;48.646;9.026;2023-04-06T14:24:22;21.90;1.00
30150;DHT22;16962;48.646;9.026;2023-04-06T14:35:22;22.10;1.00
30150;DHT22;16962;48.646;9.026;2023-04-06T14:38:46;19.70;1.00
30150;DHT22;16962;48.646;9.026;2023-04-06T14:41:46;17.90;1.00
30150;DHT22;16962;48.646;9.026;2023-04-06T14:44:40;16.40;1.00
30150;DHT22;16962;48.646;9.026;2023-04-06T14:47:34;14.80;1.00
30150;DHT22;16962;48.646;9.026;2023-04-06T14:50:30;14.40;1.00
30150;DHT22;16962;48.646;9.026;2023-04-06T14:53:26;14.30;1.00
30150;DHT22;16962;48.646;9.026;2023-04-06T14:56:22;14.10;1.00
30150;DHT22;16962;48.646;9.026;2023-04-06T14:59:13;13.70;1.00
30150;DHT22;16962;48.646;9.026;2023-04-06T15:02:02;13.30;1.00
30150;DHT22;16962;48.646;9.026;2023-04-06T15:04:52;13.40;1.00
30150;DHT22;16962;48.646;9.026;2023-04-06T15:11:52;13.80;1.00
30150;DHT22;16962;48.646;9.026;2023-04-06T15:19:47;13.70;1.00
30150;DHT22;16962;48.646;9.026;2023-04-06T15:31:29;12.90;1.00
30150;DHT22;16962;48.646;9.026;2023-04-06T15:47:39;12.70;1.00
30150;DHT22;16962;48.646;9.026;2023-04-06T15:54:46;12.30;1.00
30150;DHT22;16962;48.646;9.026;2023-04-06T16:06:51;12.40;1.00
30150;DHT22;16962;48.646;9.026;2023-04-06T16:09:54;12.40;1.00
30150;DHT22;16962;48.646;9.026;2023-04-06T16:13:47;12.30;1.00
30150;DHT22;16962;48.646;9.026;2023-04-06T16:25:07;12.00;1.00
30150;DHT22;16962;48.646;9.026;2023-04-06T16:29:00;11.90;1.00
30150;DHT22;16962;48.646;9.026;2023-04-06T17:05:24;10.90;1.00
30150;DHT22;16962;48.646;9.026;2023-04-06T17:12:30;10.70;1.00
30150;DHT22;16962;48.646;9.026;2023-04-06T17:32:25;10.30;1.00
30150;DHT22;16962;48.646;9.026;2023-04-06T18:23:09;9.30;1.00
30150;DHT22;16962;48.646;9.026;2023-04-06T18:26:00;9.30;1.00
30150;DHT22;16962;48.646;9.026;2023-04-06T18:28:48;9.30;1.00
30150;DHT22;16962;48.646;9.026;2023-04-06T18:31:49;9.20;1.00
30150;DHT22;16962;48.646;9.026;2023-04-06T18:35:09;9.20;1.00
30150;DHT22;16962;48.646;9.026;2023-04-06T18:38:02;9.20;1.00
30150;DHT22;16962;48.646;9.026;2023-04-06T18:41:18;9.10;1.00
30150;DHT22;16962;48.646;9.026;2023-04-06T18:44:20;9.10;1.00
30150;DHT22;16962;48.646;9.026;2023-04-06T18:50:55;9.00;1.00
30150;DHT22;16962;48.646;9.026;2023-04-06T18:54:33;9.00;1.00
30150;DHT22;16962;48.646;9.026;2023-04-06T18:57:34;8.90;1.00
30150;DHT22;16962;48.646;9.026;2023-04-06T19:00:53;8.90;1.00
30150;DHT22;16962;48.646;9.026;2023-04-06T19:03:50;8.80;1.00
30150;DHT22;16962;48.646;9.026;2023-04-06T19:10:55;8.70;1.00
30150;DHT22;16962;48.646;9.026;2023-04-06T19:13:49;8.70;1.00
30150;DHT22;16962;48.646;9.026;2023-04-06T19:16:36;8.60;1.00
30150;DHT22;16962;48.646;9.026;2023-04-06T19:19:27;8.60;1.00
30150;DHT22;16962;48.646;9.026;2023-04-06T19:22:34;8.60;1.00
30150;DHT22;16962;48.646;9.026;2023-04-06T19:25:25;8.50;1.00
30150;DHT22;16962;48.646;9.026;2023-04-06T19:28:21;8.40;1.00
30150;DHT22;16962;48.646;9.026;2023-04-06T19:31:11;8.50;1.00
30150;DHT22;16962;48.646;9.026;2023-04-06T19:34:20;8.50;1.00
30150;DHT22;16962;48.646;9.026;2023-04-06T19:37:18;8.50;1.00
30150;DHT22;16962;48.646;9.026;2023-04-06T19:40:21;8.40;1.00
30150;DHT22;16962;48.646;9.026;2023-04-06T19:43:12;8.30;1.00
30150;DHT22;16962;48.646;9.026;2023-04-06T19:46:06;8.30;1.00
30150;DHT22;16962;48.646;9.026;2023-04-06T19:48:55;8.30;1.00
30150;DHT22;16962;48.646;9.026;2023-04-06T19:51:45;8.20;1.00
30150;DHT22;16962;48.646;9.026;2023-04-06T19:54:36;8.10;1.00
30150;DHT22;16962;48.646;9.026;2023-04-06T19:57:29;8.10;1.00
30150;DHT22;16962;48.646;9.026;2023-04-06T20:00:28;7.90;1.00
30150;DHT22;16962;48.646;9.026;2023-04-06T20:03:36;7.70;1.00
30150;DHT22;16962;48.646;9.026;2023-04-06T20:06:25;7.50;1.00
30150;DHT22;16962;48.646;9.026;2023-04-06T20:09:17;7.40;1.00
30150;DHT22;16962;48.646;9.026;2023-04-06T20:12:32;7.30;1.00
30150;DHT22;16962;48.646;9.026;2023-04-06T20:15:24;7.10;1.00
30150;DHT22;16962;48.646;9.026;2023-04-06T20:18:23;7.00;1.00
30150;DHT22;16962;48.646;9.026;2023-04-06T20:21:19;7.00;1.00
30150;DHT22;16962;48.646;9.026;2023-04-06T20:24:08;6.90;1.00
30150;DHT22;16962;48.646;9.026;2023-04-06T20:26:57;6.90;1.00
30150;DHT22;16962;48.646;9.026;2023-04-06T20:30:09;6.80;1.00
30150;DHT22;16962;48.646;9.026;2023-04-06T20:33:19;6.70;1.00
30150;DHT22;16962;48.646;9.026;2023-04-06T20:36:20;6.80;7.40
30150;DHT22;16962;48.646;9.026;2023-04-06T20:39:15;6.80;13.40
30150;DHT22;16962;48.646;9.026;2023-04-06T20:42:06;6.70;17.90
30150;DHT22;16962;48.646;9.026;2023-04-06T20:45:05;6.70;30.00
30150;DHT22;16962;48.646;9.026;2023-04-06T20:47:57;6.70;48.20
30150;DHT22;16962;48.646;9.026;2023-04-06T20:50:48;6.70;56.90
30150;DHT22;16962;48.646;9.026;2023-04-06T20:53:56;6.60;51.90
30150;DHT22;16962;48.646;9.026;2023-04-06T20:56:46;6.50;69.90
30150;DHT22;16962;48.646;9.026;2023-04-06T20:59:35;6.50;92.90
30150;DHT22;16962;48.646;9.026;2023-04-06T21:02:24;6.50;99.90
30150;DHT22;16962;48.646;9.026;2023-04-06T21:05:21;6.50;99.90
30150;DHT22;16962;48.646;9.026;2023-04-06T21:08:11;6.40;99.90
30150;DHT22;16962;48.646;9.026;2023-04-06T21:11:03;6.20;99.90
30150;DHT22;16962;48.646;9.026;2023-04-06T21:13:51;6.10;99.90
30150;DHT22;16962;48.646;9.026;2023-04-06T21:16:40;5.90;99.90
30150;DHT22;16962;48.646;9.026;2023-04-06T21:19:28;5.80;99.90
30150;DHT22;16962;48.646;9.026;2023-04-06T21:22:26;5.70;99.90
30150;DHT22;16962;48.646;9.026;2023-04-06T21:25:16;5.60;99.90
30150;DHT22;16962;48.646;9.026;2023-04-06T21:28:04;5.60;1.00
30150;DHT22;16962;48.646;9.026;2023-04-06T21:31:27;5.50;1.00
30150;DHT22;16962;48.646;9.026;2023-04-06T21:34:35;5.40;1.00
30150;DHT22;16962;48.646;9.026;2023-04-06T21:37:57;5.30;1.00
30150;DHT22;16962;48.646;9.026;2023-04-06T21:40:55;5.20;48.50
30150;DHT22;16962;48.646;9.026;2023-04-06T21:43:42;5.10;99.90
30150;DHT22;16962;48.646;9.026;2023-04-06T21:46:42;5.10;99.90
30150;DHT22;16962;48.646;9.026;2023-04-06T21:53:50;5.10;1.00
30150;DHT22;16962;48.646;9.026;2023-04-06T21:57:32;5.00;1.00
30150;DHT22;16962;48.646;9.026;2023-04-06T22:00:22;5.00;99.90
30150;DHT22;16962;48.646;9.026;2023-04-06T22:03:31;5.00;99.90
30150;DHT22;16962;48.646;9.026;2023-04-06T22:09:52;5.00;99.90
30150;DHT22;16962;48.646;9.026;2023-04-06T22:12:42;5.00;99.90
30150;DHT22;16962;48.646;9.026;2023-04-06T22:15:35;5.00;16.50
30150;DHT22;16962;48.646;9.026;2023-04-06T22:18:32;4.90;4.60
30150;DHT22;16962;48.646;9.026;2023-04-06T22:21:26;4.90;1.00
30150;DHT22;16962;48.646;9.026;2023-04-06T22:24:25;4.90;99.90
30150;DHT22;16962;48.646;9.026;2023-04-06T22:27:12;4.90;1.00
30150;DHT22;16962;48.646;9.026;2023-04-06T22:33:30;4.90;99.90
30150;DHT22;16962;48.646;9.026;2023-04-06T22:44:37;4.80;1.00
30150;DHT22;16962;48.646;9.026;2023-04-06T22:48:03;4.80;1.00
30150;DHT22;16962;48.646;9.026;2023-04-06T22:56:04;4.80;99.90
30150;DHT22;16962;48.646;9.026;2023-04-06T23:36:21;4.80;99.90
